sensor_id;sensor_type;location;lat;lon;timestamp;temperature;humidity
64638;HTU21D;51049;45.046;38.950;2023-06-14T00:01:53;19.42;75.17
64638;HTU21D;51049;45.046;38.950;2023-06-14T00:04:19;19.44;75.18
64638;HTU21D;51049;45.046;38.950;2023-06-14T00:06:46;19.45;75.24
64638;HTU21D;51049;45.046;38.950;2023-06-14T00:09:12;19.46;75.25
64638;HTU21D;51049;45.046;38.950;2023-06-14T00:11:42;19.48;75.28
64638;HTU21D;51049;45.046;38.950;2023-06-14T00:14:08;19.50;75.28
64638;HTU21D;51049;45.046;38.950;2023-06-14T00:16:34;19.51;75.30
64638;HTU21D;51049;45.046;38.950;2023-06-14T00:19:03;19.51;75.37
64638;HTU21D;51049;45.046;38.950;2023-06-14T00:21:31;19.52;75.34
64638;HTU21D;51049;45.046;38.950;2023-06-14T00:23:58;19.54;75.37
64638;HTU21D;51049;45.046;38.950;2023-06-14T00:26:24;19.52;75.38
64638;HTU21D;51049;45.046;38.950;2023-06-14T00:28:54;19.52;75.42
64638;HTU21D;51049;45.046;38.950;2023-06-14T00:31:20;19.52;75.45
64638;HTU21D;51049;45.046;38.950;2023-06-14T00:33:46;19.50;75.50
64638;HTU21D;51049;45.046;38.950;2023-06-14T00:36:12;19.48;75.56
64638;HTU21D;51049;45.046;38.950;2023-06-14T00:38:38;19.46;75.63
64638;HTU21D;51049;45.046;38.950;2023-06-14T00:41:04;19.45;75.67
64638;HTU21D;51049;45.046;38.950;2023-06-14T00:43:30;19.43;75.73
64638;HTU21D;51049;45.046;38.950;2023-06-14T00:45:56;19.43;75.79
64638;HTU21D;51049;45.046;38.950;2023-06-14T00:48:23;19.42;75.84
64638;HTU21D;51049;45.046;38.950;2023-06-14T00:50:50;19.42;75.92
64638;HTU21D;51049;45.046;38.950;2023-06-14T00:53:18;19.39;75.92
64638;HTU21D;51049;45.046;38.950;2023-06-14T00:55:47;19.39;75.97
64638;HTU21D;51049;45.046;38.950;2023-06-14T00:58:16;19.37;76.02
64638;HTU21D;51049;45.046;38.950;2023-06-14T01:00:42;19.32;76.10
64638;HTU21D;51049;45.046;38.950;2023-06-14T01:03:08;19.33;76.20
64638;HTU21D;51049;45.046;38.950;2023-06-14T01:05:38;19.29;76.21
64638;HTU21D;51049;45.046;38.950;2023-06-14T01:08:24;19.26;76.33
64638;HTU21D;51049;45.046;38.950;2023-06-14T01:11:07;19.25;76.39
64638;HTU21D;51049;45.046;38.950;2023-06-14T01:13:39;19.25;76.41
64638;HTU21D;51049;45.046;38.950;2023-06-14T01:16:08;19.24;76.47
64638;HTU21D;51049;45.046;38.950;2023-06-14T01:18:34;19.24;76.51
64638;HTU21D;51049;45.046;38.950;2023-06-14T01:21:01;19.24;76.57
64638;HTU21D;51049;45.046;38.950;2023-06-14T01:23:32;19.26;76.60
64638;HTU21D;51049;45.046;38.950;2023-06-14T01:25:59;19.28;76.63
64638;HTU21D;51049;45.046;38.950;2023-06-14T01:28:26;19.31;76.66
64638;HTU21D;51049;45.046;38.950;2023-06-14T01:31:01;19.35;76.66
64638;HTU21D;51049;45.046;38.950;2023-06-14T01:33:33;19.36;76.66
64638;HTU21D;51049;45.046;38.950;2023-06-14T01:35:59;19.37;76.69
64638;HTU21D;51049;45.046;38.950;2023-06-14T01:38:30;19.39;76.70
64638;HTU21D;51049;45.046;38.950;2023-06-14T01:40:58;19.39;76.75
64638;HTU21D;51049;45.046;38.950;2023-06-14T01:43:25;19.42;76.76
64638;HTU21D;51049;45.046;38.950;2023-06-14T01:45:53;19.43;76.82
64638;HTU21D;51049;45.046;38.950;2023-06-14T01:48:21;19.42;76.85
64638;HTU21D;51049;45.046;38.950;2023-06-14T01:50:48;19.35;76.99
64638;HTU21D;51049;45.046;38.950;2023-06-14T01:53:15;19.31;77.14
64638;HTU21D;51049;45.046;38.950;2023-06-14T01:55:41;19.25;77.25
64638;HTU21D;51049;45.046;38.950;2023-06-14T01:58:10;19.18;77.49
64638;HTU21D;51049;45.046;38.950;2023-06-14T02:00:36;19.12;77.69
64638;HTU21D;51049;45.046;38.950;2023-06-14T02:03:02;19.08;77.95
64638;HTU21D;51049;45.046;38.950;2023-06-14T02:05:31;19.09;78.11
64638;HTU21D;51049;45.046;38.950;2023-06-14T02:07:57;19.09;78.25
64638;HTU21D;51049;45.046;38.950;2023-06-14T02:10:23;19.11;78.35
64638;HTU21D;51049;45.046;38.950;2023-06-14T02:12:49;19.14;78.48
64638;HTU21D;51049;45.046;38.950;2023-06-14T02:15:15;19.16;78.56
64638;HTU21D;51049;45.046;38.950;2023-06-14T02:17:46;19.15;78.67
64638;HTU21D;51049;45.046;38.950;2023-06-14T02:20:20;19.18;78.75
64638;HTU21D;51049;45.046;38.950;2023-06-14T02:22:46;19.20;78.85
64638;HTU21D;51049;45.046;38.950;2023-06-14T02:25:12;19.22;78.98
64638;HTU21D;51049;45.046;38.950;2023-06-14T02:27:40;19.24;79.09
64638;HTU21D;51049;45.046;38.950;2023-06-14T02:30:06;19.28;79.21
64638;HTU21D;51049;45.046;38.950;2023-06-14T02:32:33;19.29;79.29
64638;HTU21D;51049;45.046;38.950;2023-06-14T02:35:02;19.32;79.37
64638;HTU21D;51049;45.046;38.950;2023-06-14T02:37:28;19.35;79.47
64638;HTU21D;51049;45.046;38.950;2023-06-14T02:39:54;19.38;79.54
64638;HTU21D;51049;45.046;38.950;2023-06-14T02:42:20;19.39;79.62
64638;HTU21D;51049;45.046;38.950;2023-06-14T02:44:46;19.41;79.70
64638;HTU21D;51049;45.046;38.950;2023-06-14T02:47:19;19.43;79.83
64638;HTU21D;51049;45.046;38.950;2023-06-14T02:49:45;19.44;79.82
64638;HTU21D;51049;45.046;38.950;2023-06-14T02:52:15;19.45;79.89
64638;HTU21D;51049;45.046;38.950;2023-06-14T02:54:40;19.51;79.95
64638;HTU21D;51049;45.046;38.950;2023-06-14T02:57:08;19.55;80.03
64638;HTU21D;51049;45.046;38.950;2023-06-14T02:59:35;19.58;80.01
64638;HTU21D;51049;45.046;38.950;2023-06-14T03:02:03;19.59;80.04
64638;HTU21D;51049;45.046;38.950;2023-06-14T03:04:32;19.61;80.07
64638;HTU21D;51049;45.046;38.950;2023-06-14T03:07:06;19.63;80.08
64638;HTU21D;51049;45.046;38.950;2023-06-14T03:09:38;19.66;80.15
64638;HTU21D;51049;45.046;38.950;2023-06-14T03:12:05;19.71;80.20
64638;HTU21D;51049;45.046;38.950;2023-06-14T03:14:35;19.76;80.17
64638;HTU21D;51049;45.046;38.950;2023-06-14T03:17:03;19.81;80.20
64638;HTU21D;51049;45.046;38.950;2023-06-14T03:19:32;19.84;80.20
64638;HTU21D;51049;45.046;38.950;2023-06-14T03:21:58;19.88;80.20
64638;HTU21D;51049;45.046;38.950;2023-06-14T03:24:26;19.92;80.21
64638;HTU21D;51049;45.046;38.950;2023-06-14T03:26:57;19.99;80.20
64638;HTU21D;51049;45.046;38.950;2023-06-14T03:29:24;20.03;80.17
64638;HTU21D;51049;45.046;38.950;2023-06-14T03:31:58;20.11;80.20
64638;HTU21D;51049;45.046;38.950;2023-06-14T03:34:31;20.18;80.17
64638;HTU21D;51049;45.046;38.950;2023-06-14T03:36:57;20.26;80.18
64638;HTU21D;51049;45.046;38.950;2023-06-14T03:39:23;20.35;80.18
64638;HTU21D;51049;45.046;38.950;2023-06-14T03:41:50;20.43;80.12
64638;HTU21D;51049;45.046;38.950;2023-06-14T03:44:17;20.50;80.06
64638;HTU21D;51049;45.046;38.950;2023-06-14T03:46:44;20.56;79.92
64638;HTU21D;51049;45.046;38.950;2023-06-14T03:49:11;20.58;79.89
64638;HTU21D;51049;45.046;38.950;2023-06-14T03:51:37;20.65;79.79
64638;HTU21D;51049;45.046;38.950;2023-06-14T03:54:03;20.69;79.75
64638;HTU21D;51049;45.046;38.950;2023-06-14T03:56:30;20.74;79.78
64638;HTU21D;51049;45.046;38.950;2023-06-14T03:58:56;20.80;79.81
64638;HTU21D;51049;45.046;38.950;2023-06-14T04:01:24;20.90;79.79
64638;HTU21D;51049;45.046;38.950;2023-06-14T04:03:53;20.98;79.71
64638;HTU21D;51049;45.046;38.950;2023-06-14T04:06:19;21.06;79.66
64638;HTU21D;51049;45.046;38.950;2023-06-14T04:08:45;21.13;79.60
64638;HTU21D;51049;45.046;38.950;2023-06-14T04:11:11;21.21;79.53
64638;HTU21D;51049;45.046;38.950;2023-06-14T04:13:37;21.29;79.40
64638;HTU21D;51049;45.046;38.950;2023-06-14T04:16:05;21.34;79.24
64638;HTU21D;51049;45.046;38.950;2023-06-14T04:18:34;21.40;79.11
64638;HTU21D;51049;45.046;38.950;2023-06-14T04:21:00;21.49;78.98
64638;HTU21D;51049;45.046;38.950;2023-06-14T04:23:28;21.57;78.93
64638;HTU21D;51049;45.046;38.950;2023-06-14T04:25:54;21.62;78.85
64638;HTU21D;51049;45.046;38.950;2023-06-14T04:28:22;21.67;78.81
64638;HTU21D;51049;45.046;38.950;2023-06-14T04:30:55;21.76;78.78
64638;HTU21D;51049;45.046;38.950;2023-06-14T04:33:21;21.82;78.72
64638;HTU21D;51049;45.046;38.950;2023-06-14T04:35:48;21.88;78.62
64638;HTU21D;51049;45.046;38.950;2023-06-14T04:38:15;21.94;78.53
64638;HTU21D;51049;45.046;38.950;2023-06-14T04:40:41;21.98;78.47
64638;HTU21D;51049;45.046;38.950;2023-06-14T04:43:16;22.05;78.42
64638;HTU21D;51049;45.046;38.950;2023-06-14T04:45:51;22.11;78.40
64638;HTU21D;51049;45.046;38.950;2023-06-14T04:48:18;22.20;78.21
64638;HTU21D;51049;45.046;38.950;2023-06-14T04:50:48;22.29;78.01
64638;HTU21D;51049;45.046;38.950;2023-06-14T04:53:20;22.37;77.84
64638;HTU21D;51049;45.046;38.950;2023-06-14T04:55:49;22.43;77.75
64638;HTU21D;51049;45.046;38.950;2023-06-14T04:58:17;22.47;77.71
64638;HTU21D;51049;45.046;38.950;2023-06-14T05:00:43;22.50;77.65
64638;HTU21D;51049;45.046;38.950;2023-06-14T05:03:09;22.56;77.71
64638;HTU21D;51049;45.046;38.950;2023-06-14T05:05:40;22.64;77.63
64638;HTU21D;51049;45.046;38.950;2023-06-14T05:08:07;22.75;77.51
64638;HTU21D;51049;45.046;38.950;2023-06-14T05:10:34;22.83;77.38
64638;HTU21D;51049;45.046;38.950;2023-06-14T05:13:02;22.95;77.20
64638;HTU21D;51049;45.046;38.950;2023-06-14T05:15:29;23.01;77.01
64638;HTU21D;51049;45.046;38.950;2023-06-14T05:17:55;23.08;76.90
64638;HTU21D;51049;45.046;38.950;2023-06-14T05:20:22;23.14;76.79
64638;HTU21D;51049;45.046;38.950;2023-06-14T05:22:51;23.16;76.63
64638;HTU21D;51049;45.046;38.950;2023-06-14T05:25:19;23.14;76.58
64638;HTU21D;51049;45.046;38.950;2023-06-14T05:27:45;23.17;76.48
64638;HTU21D;51049;45.046;38.950;2023-06-14T05:30:12;23.20;76.39
64638;HTU21D;51049;45.046;38.950;2023-06-14T05:32:38;23.21;76.40
64638;HTU21D;51049;45.046;38.950;2023-06-14T05:35:04;23.26;76.34
64638;HTU21D;51049;45.046;38.950;2023-06-14T05:37:31;23.30;76.28
64638;HTU21D;51049;45.046;38.950;2023-06-14T05:39:57;23.36;76.11
64638;HTU21D;51049;45.046;38.950;2023-06-14T05:42:23;23.35;76.04
64638;HTU21D;51049;45.046;38.950;2023-06-14T05:44:49;23.31;75.98
64638;HTU21D;51049;45.046;38.950;2023-06-14T05:47:15;23.25;75.97
64638;HTU21D;51049;45.046;38.950;2023-06-14T05:49:42;23.18;75.99
64638;HTU21D;51049;45.046;38.950;2023-06-14T05:52:08;23.11;75.99
64638;HTU21D;51049;45.046;38.950;2023-06-14T05:54:34;23.01;75.98
64638;HTU21D;51049;45.046;38.950;2023-06-14T05:57:00;22.95;76.06
64638;HTU21D;51049;45.046;38.950;2023-06-14T05:59:27;22.92;76.13
64638;HTU21D;51049;45.046;38.950;2023-06-14T06:01:53;22.92;76.15
64638;HTU21D;51049;45.046;38.950;2023-06-14T06:04:19;22.93;76.11
64638;HTU21D;51049;45.046;38.950;2023-06-14T06:06:47;22.96;76.08
64638;HTU21D;51049;45.046;38.950;2023-06-14T06:09:13;23.02;76.03
64638;HTU21D;51049;45.046;38.950;2023-06-14T06:11:41;23.13;75.88
64638;HTU21D;51049;45.046;38.950;2023-06-14T06:14:07;23.28;75.71
64638;HTU21D;51049;45.046;38.950;2023-06-14T06:16:33;23.49;75.46
64638;HTU21D;51049;45.046;38.950;2023-06-14T06:18:59;23.66;75.12
64638;HTU21D;51049;45.046;38.950;2023-06-14T06:21:25;23.86;74.78
64638;HTU21D;51049;45.046;38.950;2023-06-14T06:23:51;24.02;74.49
64638;HTU21D;51049;45.046;38.950;2023-06-14T06:26:17;24.15;74.26
64638;HTU21D;51049;45.046;38.950;2023-06-14T06:28:43;24.28;74.14
64638;HTU21D;51049;45.046;38.950;2023-06-14T06:31:09;24.42;73.95
64638;HTU21D;51049;45.046;38.950;2023-06-14T06:33:36;24.55;73.69
64638;HTU21D;51049;45.046;38.950;2023-06-14T06:36:02;24.63;73.37
64638;HTU21D;51049;45.046;38.950;2023-06-14T06:38:28;24.63;73.16
64638;HTU21D;51049;45.046;38.950;2023-06-14T06:40:54;24.62;73.12
64638;HTU21D;51049;45.046;38.950;2023-06-14T06:43:22;24.65;73.04
64638;HTU21D;51049;45.046;38.950;2023-06-14T06:45:49;24.71;72.90
64638;HTU21D;51049;45.046;38.950;2023-06-14T06:48:15;24.78;72.68
64638;HTU21D;51049;45.046;38.950;2023-06-14T06:50:41;24.82;72.39
64638;HTU21D;51049;45.046;38.950;2023-06-14T06:53:07;24.79;72.27
64638;HTU21D;51049;45.046;38.950;2023-06-14T06:55:33;24.73;72.32
64638;HTU21D;51049;45.046;38.950;2023-06-14T06:57:59;24.76;72.37
64638;HTU21D;51049;45.046;38.950;2023-06-14T07:00:26;24.78;72.18
64638;HTU21D;51049;45.046;38.950;2023-06-14T07:02:52;24.80;72.08
64638;HTU21D;51049;45.046;38.950;2023-06-14T07:05:20;24.88;72.00
64638;HTU21D;51049;45.046;38.950;2023-06-14T07:07:46;25.06;71.72
64638;HTU21D;51049;45.046;38.950;2023-06-14T07:10:12;25.25;71.38
64638;HTU21D;51049;45.046;38.950;2023-06-14T07:12:38;25.48;71.15
64638;HTU21D;51049;45.046;38.950;2023-06-14T07:15:08;25.75;70.94
64638;HTU21D;51049;45.046;38.950;2023-06-14T07:17:34;25.97;70.42
64638;HTU21D;51049;45.046;38.950;2023-06-14T07:20:02;26.10;69.86
64638;HTU21D;51049;45.046;38.950;2023-06-14T07:22:33;26.18;69.61
64638;HTU21D;51049;45.046;38.950;2023-06-14T07:24:59;26.27;69.23
64638;HTU21D;51049;45.046;38.950;2023-06-14T07:27:25;26.41;68.85
64638;HTU21D;51049;45.046;38.950;2023-06-14T07:29:51;26.52;68.57
64638;HTU21D;51049;45.046;38.950;2023-06-14T07:32:17;26.68;68.03
64638;HTU21D;51049;45.046;38.950;2023-06-14T07:34:43;26.82;67.63
64638;HTU21D;51049;45.046;38.950;2023-06-14T07:37:09;27.00;67.36
64638;HTU21D;51049;45.046;38.950;2023-06-14T07:39:35;27.22;66.76
64638;HTU21D;51049;45.046;38.950;2023-06-14T07:42:01;27.32;66.29
64638;HTU21D;51049;45.046;38.950;2023-06-14T07:44:29;27.40;65.96
64638;HTU21D;51049;45.046;38.950;2023-06-14T07:46:56;27.42;65.37
64638;HTU21D;51049;45.046;38.950;2023-06-14T07:49:26;27.39;64.88
64638;HTU21D;51049;45.046;38.950;2023-06-14T07:51:52;27.44;64.83
64638;HTU21D;51049;45.046;38.950;2023-06-14T07:54:19;27.52;64.63
64638;HTU21D;51049;45.046;38.950;2023-06-14T07:56:52;27.56;64.34
64638;HTU21D;51049;45.046;38.950;2023-06-14T07:59:18;27.57;64.03
64638;HTU21D;51049;45.046;38.950;2023-06-14T08:01:45;27.56;63.78
64638;HTU21D;51049;45.046;38.950;2023-06-14T08:04:15;27.54;63.69
64638;HTU21D;51049;45.046;38.950;2023-06-14T08:06:41;27.49;63.64
64638;HTU21D;51049;45.046;38.950;2023-06-14T08:09:12;27.50;63.66
64638;HTU21D;51049;45.046;38.950;2023-06-14T08:11:38;27.57;63.33
64638;HTU21D;51049;45.046;38.950;2023-06-14T08:14:04;27.69;62.76
64638;HTU21D;51049;45.046;38.950;2023-06-14T08:16:30;27.87;62.35
64638;HTU21D;51049;45.046;38.950;2023-06-14T08:18:56;28.00;62.07
64638;HTU21D;51049;45.046;38.950;2023-06-14T08:21:22;28.17;61.96
64638;HTU21D;51049;45.046;38.950;2023-06-14T08:23:48;28.41;61.60
64638;HTU21D;51049;45.046;38.950;2023-06-14T08:26:14;28.57;61.09
64638;HTU21D;51049;45.046;38.950;2023-06-14T08:28:40;28.64;60.60
64638;HTU21D;51049;45.046;38.950;2023-06-14T08:31:06;28.68;59.97
64638;HTU21D;51049;45.046;38.950;2023-06-14T08:33:32;28.64;59.20
64638;HTU21D;51049;45.046;38.950;2023-06-14T08:36:00;28.58;58.77
64638;HTU21D;51049;45.046;38.950;2023-06-14T08:38:26;28.56;58.96
64638;HTU21D;51049;45.046;38.950;2023-06-14T08:40:53;28.61;58.95
64638;HTU21D;51049;45.046;38.950;2023-06-14T08:43:22;28.63;58.91
64638;HTU21D;51049;45.046;38.950;2023-06-14T08:45:48;28.70;58.91
64638;HTU21D;51049;45.046;38.950;2023-06-14T08:48:18;28.74;58.80
64638;HTU21D;51049;45.046;38.950;2023-06-14T08:50:46;28.70;58.50
64638;HTU21D;51049;45.046;38.950;2023-06-14T08:53:14;28.59;58.48
64638;HTU21D;51049;45.046;38.950;2023-06-14T08:55:45;28.45;58.62
64638;HTU21D;51049;45.046;38.950;2023-06-14T08:58:13;28.37;58.64
64638;HTU21D;51049;45.046;38.950;2023-06-14T09:00:40;28.33;59.00
64638;HTU21D;51049;45.046;38.950;2023-06-14T09:03:07;28.35;58.78
64638;HTU21D;51049;45.046;38.950;2023-06-14T09:05:39;28.34;58.64
64638;HTU21D;51049;45.046;38.950;2023-06-14T09:08:05;28.29;58.58
64638;HTU21D;51049;45.046;38.950;2023-06-14T09:10:32;28.26;58.32
64638;HTU21D;51049;45.046;38.950;2023-06-14T09:13:03;28.17;58.35
64638;HTU21D;51049;45.046;38.950;2023-06-14T09:15:30;28.13;58.48
64638;HTU21D;51049;45.046;38.950;2023-06-14T09:17:57;28.13;58.38
64638;HTU21D;51049;45.046;38.950;2023-06-14T09:20:24;28.16;58.33
64638;HTU21D;51049;45.046;38.950;2023-06-14T09:22:50;28.25;58.41
64638;HTU21D;51049;45.046;38.950;2023-06-14T09:25:16;28.32;58.16
64638;HTU21D;51049;45.046;38.950;2023-06-14T09:28:02;28.38;58.00
64638;HTU21D;51049;45.046;38.950;2023-06-14T09:30:28;28.37;57.79
64638;HTU21D;51049;45.046;38.950;2023-06-14T09:32:54;28.38;57.75
64638;HTU21D;51049;45.046;38.950;2023-06-14T09:35:20;28.46;57.89
64638;HTU21D;51049;45.046;38.950;2023-06-14T09:37:47;28.53;57.66
64638;HTU21D;51049;45.046;38.950;2023-06-14T09:40:13;28.56;57.74
64638;HTU21D;51049;45.046;38.950;2023-06-14T09:42:39;28.60;57.53
64638;HTU21D;51049;45.046;38.950;2023-06-14T09:45:26;28.59;57.35
64638;HTU21D;51049;45.046;38.950;2023-06-14T09:47:55;28.62;57.45
64638;HTU21D;51049;45.046;38.950;2023-06-14T09:50:22;28.72;57.45
64638;HTU21D;51049;45.046;38.950;2023-06-14T09:53:07;28.82;57.11
64638;HTU21D;51049;45.046;38.950;2023-06-14T09:55:54;28.75;56.79
64638;HTU21D;51049;45.046;38.950;2023-06-14T09:58:40;28.69;57.15
64638;HTU21D;51049;45.046;38.950;2023-06-14T10:01:26;28.72;57.15
64638;HTU21D;51049;45.046;38.950;2023-06-14T10:04:02;28.72;57.04
64638;HTU21D;51049;45.046;38.950;2023-06-14T10:06:29;28.74;57.08
64638;HTU21D;51049;45.046;38.950;2023-06-14T10:09:14;28.77;56.81
64638;HTU21D;51049;45.046;38.950;2023-06-14T10:11:40;28.84;56.75
64638;HTU21D;51049;45.046;38.950;2023-06-14T10:14:26;28.93;56.54
64638;HTU21D;51049;45.046;38.950;2023-06-14T10:17:05;28.99;56.50
64638;HTU21D;51049;45.046;38.950;2023-06-14T10:19:54;29.19;56.60
64638;HTU21D;51049;45.046;38.950;2023-06-14T10:22:30;29.50;56.23
64638;HTU21D;51049;45.046;38.950;2023-06-14T10:24:57;29.76;55.59
64638;HTU21D;51049;45.046;38.950;2023-06-14T10:27:23;29.82;54.81
64638;HTU21D;51049;45.046;38.950;2023-06-14T10:32:20;29.67;54.78
64638;HTU21D;51049;45.046;38.950;2023-06-14T10:34:57;29.59;54.88
64638;HTU21D;51049;45.046;38.950;2023-06-14T10:37:42;29.51;55.18
64638;HTU21D;51049;45.046;38.950;2023-06-14T10:40:30;29.50;55.28
64638;HTU21D;51049;45.046;38.950;2023-06-14T10:42:56;29.52;55.12
64638;HTU21D;51049;45.046;38.950;2023-06-14T10:45:22;29.58;54.91
64638;HTU21D;51049;45.046;38.950;2023-06-14T10:47:49;29.61;54.81
64638;HTU21D;51049;45.046;38.950;2023-06-14T10:50:19;29.62;54.19
64638;HTU21D;51049;45.046;38.950;2023-06-14T10:52:53;29.60;54.33
64638;HTU21D;51049;45.046;38.950;2023-06-14T10:55:21;29.65;54.04
64638;HTU21D;51049;45.046;38.950;2023-06-14T11:00:33;29.83;53.88
64638;HTU21D;51049;45.046;38.950;2023-06-14T11:03:11;30.03;53.32
64638;HTU21D;51049;45.046;38.950;2023-06-14T11:05:52;30.19;52.52
64638;HTU21D;51049;45.046;38.950;2023-06-14T11:11:16;30.11;52.30
64638;HTU21D;51049;45.046;38.950;2023-06-14T11:13:44;30.03;52.14
64638;HTU21D;51049;45.046;38.950;2023-06-14T11:16:15;29.92;51.79
64638;HTU21D;51049;45.046;38.950;2023-06-14T11:19:01;29.87;52.11
64638;HTU21D;51049;45.046;38.950;2023-06-14T11:21:28;29.95;52.22
64638;HTU21D;51049;45.046;38.950;2023-06-14T11:23:57;30.00;52.23
64638;HTU21D;51049;45.046;38.950;2023-06-14T11:26:30;29.85;52.36
64638;HTU21D;51049;45.046;38.950;2023-06-14T11:29:16;29.53;52.26
64638;HTU21D;51049;45.046;38.950;2023-06-14T11:32:00;29.29;52.80
64638;HTU21D;51049;45.046;38.950;2023-06-14T11:34:26;29.11;52.76
64638;HTU21D;51049;45.046;38.950;2023-06-14T11:36:52;28.94;53.10
64638;HTU21D;51049;45.046;38.950;2023-06-14T11:39:24;28.91;53.40
64638;HTU21D;51049;45.046;38.950;2023-06-14T11:41:50;28.98;53.68
64638;HTU21D;51049;45.046;38.950;2023-06-14T11:44:16;29.17;53.64
64638;HTU21D;51049;45.046;38.950;2023-06-14T11:46:42;29.41;53.56
64638;HTU21D;51049;45.046;38.950;2023-06-14T11:49:08;29.62;53.23
64638;HTU21D;51049;45.046;38.950;2023-06-14T11:51:35;29.80;52.62
64638;HTU21D;51049;45.046;38.950;2023-06-14T11:54:20;29.92;52.18
64638;HTU21D;51049;45.046;38.950;2023-06-14T11:56:46;30.21;51.74
64638;HTU21D;51049;45.046;38.950;2023-06-14T11:59:13;30.64;51.08
64638;HTU21D;51049;45.046;38.950;2023-06-14T12:01:42;31.10;50.11
64638;HTU21D;51049;45.046;38.950;2023-06-14T12:04:09;31.22;50.05
64638;HTU21D;51049;45.046;38.950;2023-06-14T12:06:34;31.22;49.97
64638;HTU21D;51049;45.046;38.950;2023-06-14T12:09:08;31.15;49.82
64638;HTU21D;51049;45.046;38.950;2023-06-14T12:11:38;31.25;49.79
64638;HTU21D;51049;45.046;38.950;2023-06-14T12:14:28;31.40;49.73
64638;HTU21D;51049;45.046;38.950;2023-06-14T12:17:04;31.60;49.40
64638;HTU21D;51049;45.046;38.950;2023-06-14T12:19:32;31.57;49.54
64638;HTU21D;51049;45.046;38.950;2023-06-14T12:21:59;31.56;49.82
64638;HTU21D;51049;45.046;38.950;2023-06-14T12:24:45;31.86;49.44
64638;HTU21D;51049;45.046;38.950;2023-06-14T12:27:12;32.18;48.57
64638;HTU21D;51049;45.046;38.950;2023-06-14T12:29:41;32.45;48.33
64638;HTU21D;51049;45.046;38.950;2023-06-14T12:32:11;32.75;48.06
64638;HTU21D;51049;45.046;38.950;2023-06-14T12:34:37;32.77;47.92
64638;HTU21D;51049;45.046;38.950;2023-06-14T12:37:03;32.53;47.63
64638;HTU21D;51049;45.046;38.950;2023-06-14T12:39:50;31.81;48.70
64638;HTU21D;51049;45.046;38.950;2023-06-14T12:42:16;31.38;49.54
64638;HTU21D;51049;45.046;38.950;2023-06-14T12:45:01;31.04;49.69
64638;HTU21D;51049;45.046;38.950;2023-06-14T12:47:28;30.67;49.85
64638;HTU21D;51049;45.046;38.950;2023-06-14T12:49:54;30.56;50.42
64638;HTU21D;51049;45.046;38.950;2023-06-14T12:52:20;30.87;49.95
64638;HTU21D;51049;45.046;38.950;2023-06-14T12:54:46;31.06;49.40
64638;HTU21D;51049;45.046;38.950;2023-06-14T12:57:12;30.70;49.67
64638;HTU21D;51049;45.046;38.950;2023-06-14T12:59:38;30.32;50.53
64638;HTU21D;51049;45.046;38.950;2023-06-14T13:02:15;30.03;51.23
64638;HTU21D;51049;45.046;38.950;2023-06-14T13:04:42;29.79;51.69
64638;HTU21D;51049;45.046;38.950;2023-06-14T13:07:08;29.73;52.11
64638;HTU21D;51049;45.046;38.950;2023-06-14T13:09:36;29.87;52.24
64638;HTU21D;51049;45.046;38.950;2023-06-14T13:12:03;30.19;51.81
64638;HTU21D;51049;45.046;38.950;2023-06-14T13:14:29;30.50;51.37
64638;HTU21D;51049;45.046;38.950;2023-06-14T13:16:55;30.86;50.85
64638;HTU21D;51049;45.046;38.950;2023-06-14T13:19:21;31.19;50.33
64638;HTU21D;51049;45.046;38.950;2023-06-14T13:21:48;31.31;49.97
64638;HTU21D;51049;45.046;38.950;2023-06-14T13:24:14;31.15;49.88
64638;HTU21D;51049;45.046;38.950;2023-06-14T13:26:59;30.77;50.38
64638;HTU21D;51049;45.046;38.950;2023-06-14T13:29:25;30.65;50.76
64638;HTU21D;51049;45.046;38.950;2023-06-14T13:32:10;30.97;50.73
64638;HTU21D;51049;45.046;38.950;2023-06-14T13:34:36;31.22;50.27
64638;HTU21D;51049;45.046;38.950;2023-06-14T13:37:21;31.39;50.03
64638;HTU21D;51049;45.046;38.950;2023-06-14T13:39:47;31.45;49.98
64638;HTU21D;51049;45.046;38.950;2023-06-14T13:42:13;31.27;50.08
64638;HTU21D;51049;45.046;38.950;2023-06-14T13:44:39;30.76;50.85
64638;HTU21D;51049;45.046;38.950;2023-06-14T13:47:05;30.20;51.91
64638;HTU21D;51049;45.046;38.950;2023-06-14T13:49:50;29.66;52.98
64638;HTU21D;51049;45.046;38.950;2023-06-14T13:52:35;29.24;53.81
64638;HTU21D;51049;45.046;38.950;2023-06-14T13:55:20;29.00;54.39
64638;HTU21D;51049;45.046;38.950;2023-06-14T13:57:46;28.89;54.70
64638;HTU21D;51049;45.046;38.950;2023-06-14T14:00:12;28.97;54.77
64638;HTU21D;51049;45.046;38.950;2023-06-14T14:02:38;28.97;54.52
64638;HTU21D;51049;45.046;38.950;2023-06-14T14:05:05;28.72;54.44
64638;HTU21D;51049;45.046;38.950;2023-06-14T14:07:32;28.48;54.62
64638;HTU21D;51049;45.046;38.950;2023-06-14T14:09:58;28.45;54.63
64638;HTU21D;51049;45.046;38.950;2023-06-14T14:12:24;28.85;54.20
64638;HTU21D;51049;45.046;38.950;2023-06-14T14:14:50;29.39;53.41
64638;HTU21D;51049;45.046;38.950;2023-06-14T14:17:35;29.94;52.63
64638;HTU21D;51049;45.046;38.950;2023-06-14T14:20:02;30.34;51.98
64638;HTU21D;51049;45.046;38.950;2023-06-14T14:22:28;30.79;51.42
64638;HTU21D;51049;45.046;38.950;2023-06-14T14:25:13;31.15;50.79
64638;HTU21D;51049;45.046;38.950;2023-06-14T14:28:16;31.66;50.14
64638;HTU21D;51049;45.046;38.950;2023-06-14T14:30:44;31.99;49.55
64638;HTU21D;51049;45.046;38.950;2023-06-14T14:36:13;32.43;48.89
64638;HTU21D;51049;45.046;38.950;2023-06-14T14:38:39;32.64;48.55
64638;HTU21D;51049;45.046;38.950;2023-06-14T14:41:05;32.89;48.11
64638;HTU21D;51049;45.046;38.950;2023-06-14T14:43:31;33.05;47.71
64638;HTU21D;51049;45.046;38.950;2023-06-14T14:46:16;33.08;47.28
64638;HTU21D;51049;45.046;38.950;2023-06-14T14:48:42;33.22;47.02
64638;HTU21D;51049;45.046;38.950;2023-06-14T14:54:11;33.42;46.28
64638;HTU21D;51049;45.046;38.950;2023-06-14T14:56:37;33.33;46.09
64638;HTU21D;51049;45.046;38.950;2023-06-14T14:59:04;33.31;46.04
64638;HTU21D;51049;45.046;38.950;2023-06-14T15:01:30;33.41;45.87
64638;HTU21D;51049;45.046;38.950;2023-06-14T15:03:56;33.23;45.78
64638;HTU21D;51049;45.046;38.950;2023-06-14T15:06:40;33.09;45.90
64638;HTU21D;51049;45.046;38.950;2023-06-14T15:09:07;32.94;45.89
64638;HTU21D;51049;45.046;38.950;2023-06-14T15:11:33;32.76;46.09
64638;HTU21D;51049;45.046;38.950;2023-06-14T15:13:59;32.74;46.12
64638;HTU21D;51049;45.046;38.950;2023-06-14T15:16:25;32.76;46.01
64638;HTU21D;51049;45.046;38.950;2023-06-14T15:18:50;32.78;45.89
64638;HTU21D;51049;45.046;38.950;2023-06-14T15:21:16;32.79;45.67
64638;HTU21D;51049;45.046;38.950;2023-06-14T15:23:45;32.70;45.66
64638;HTU21D;51049;45.046;38.950;2023-06-14T15:26:11;32.64;45.72
64638;HTU21D;51049;45.046;38.950;2023-06-14T15:28:56;32.66;45.73